createdAt,value
2022-09-23T00:01:33.762Z,2.53
2022-09-23T00:04:36.575Z,2.30
2022-09-23T00:07:39.618Z,2.63
2022-09-23T00:10:42.548Z,2.72
2022-09-23T00:13:46.618Z,2.78
2022-09-23T00:16:50.772Z,2.40
2022-09-23T00:19:54.229Z,3.30
2022-09-23T00:22:57.793Z,2.80
2022-09-23T00:26:01.820Z,2.72
2022-09-23T00:29:04.487Z,2.80
2022-09-23T00:32:08.497Z,2.53
2022-09-23T00:35:11.017Z,2.60
2022-09-23T00:38:14.337Z,2.80
2022-09-23T00:41:17.240Z,2.58
2022-09-23T00:44:43.108Z,2.88
2022-09-23T00:47:49.233Z,2.63
2022-09-23T00:50:54.406Z,2.40
2022-09-23T00:53:57.333Z,2.93
2022-09-23T00:57:00.849Z,2.60
2022-09-23T01:00:03.848Z,2.88
2022-09-23T01:03:09.395Z,3.03
2022-09-23T01:06:13.103Z,2.63
2022-09-23T01:12:28.087Z,2.50
2022-09-23T01:15:38.261Z,2.87
2022-09-23T01:18:46.580Z,2.70
2022-09-23T01:21:54.489Z,3.10
2022-09-23T01:25:10.916Z,3.37
2022-09-23T01:28:27.558Z,2.63
2022-09-23T01:31:35.922Z,3.17
2022-09-23T01:34:46.081Z,2.90
2022-09-23T01:37:52.205Z,2.90
2022-09-23T01:41:00.686Z,3.03
2022-09-23T01:44:05.819Z,2.50
2022-09-23T01:47:14.196Z,2.87
2022-09-23T01:50:37.071Z,3.27
2022-09-23T01:53:44.979Z,3.27
2022-09-23T01:56:52.527Z,3.00
2022-09-23T01:59:58.349Z,3.00
2022-09-23T02:03:06.040Z,2.80
2022-09-23T02:06:11.691Z,3.10
2022-09-23T02:09:16.338Z,3.00
2022-09-23T02:12:20.336Z,3.10
2022-09-23T02:15:24.966Z,3.43
2022-09-23T02:18:31.734Z,3.27
2022-09-23T02:21:36.178Z,3.27
2022-09-23T02:24:39.785Z,3.00
2022-09-23T02:27:47.561Z,3.35
2022-09-23T02:30:52.778Z,3.30
2022-09-23T02:33:58.795Z,3.27
2022-09-23T02:37:09.418Z,2.90
2022-09-23T02:40:17.425Z,3.40
2022-09-23T02:43:23.505Z,3.57
2022-09-23T02:46:26.339Z,3.53
2022-09-23T02:49:32.627Z,3.30
2022-09-23T02:52:38.182Z,3.57
2022-09-23T02:55:42.250Z,3.17
2022-09-23T02:58:46.919Z,3.53
2022-09-23T03:02:14.374Z,3.97
2022-09-23T03:05:23.848Z,3.90
2022-09-23T03:08:37.349Z,3.37
2022-09-23T03:11:42.245Z,3.60
2022-09-23T03:14:50.799Z,3.43
2022-09-23T03:17:57.697Z,3.73
2022-09-23T03:21:03.708Z,3.80
2022-09-23T03:24:08.620Z,3.20
2022-09-23T03:27:13.993Z,3.70
2022-09-23T03:30:16.691Z,3.50
2022-09-23T03:33:24.715Z,3.60
2022-09-23T03:36:54.029Z,3.70
2022-09-23T03:40:02.991Z,3.57
2022-09-23T03:43:05.954Z,4.17
2022-09-23T03:46:08.760Z,3.97
2022-09-23T03:49:15.871Z,3.97
2022-09-23T03:52:22.591Z,3.60
2022-09-23T03:55:25.246Z,3.57
2022-09-23T03:58:27.903Z,3.87
2022-09-23T04:01:30.753Z,3.53
2022-09-23T04:04:34.284Z,3.83
2022-09-23T04:07:38.607Z,3.88
2022-09-23T04:10:41.936Z,4.13
2022-09-23T04:13:44.561Z,3.65
2022-09-23T04:16:47.305Z,4.17
2022-09-23T04:19:49.886Z,4.17
2022-09-23T04:22:53.896Z,3.80
2022-09-23T04:25:56.522Z,4.43
2022-09-23T04:28:59.490Z,4.00
2022-09-23T04:32:02.524Z,3.75
2022-09-23T04:35:06.141Z,3.92
2022-09-23T04:38:11.446Z,4.68
2022-09-23T04:41:14.329Z,4.20
2022-09-23T04:44:17.137Z,3.88
2022-09-23T04:47:19.672Z,4.33
2022-09-23T04:50:22.574Z,4.17
2022-09-23T04:53:26.624Z,4.03
2022-09-23T04:56:32.698Z,4.53
2022-09-23T04:59:35.306Z,3.97
2022-09-23T05:02:43.890Z,4.30
2022-09-23T05:05:46.429Z,3.77
2022-09-23T05:08:52.194Z,4.40
2022-09-23T05:11:55.235Z,4.10
2022-09-23T05:14:58.065Z,4.20
2022-09-23T05:18:02.534Z,4.03
2022-09-23T05:21:05.673Z,4.80
2022-09-23T05:24:09.702Z,5.05
2022-09-23T05:27:12.806Z,3.93
2022-09-23T05:30:15.682Z,4.45
2022-09-23T05:33:18.377Z,4.47
2022-09-23T05:36:21.669Z,5.13
2022-09-23T05:39:25.840Z,4.18
2022-09-23T05:42:28.608Z,4.70
2022-09-23T05:45:32.105Z,3.93
2022-09-23T05:48:36.102Z,4.22
2022-09-23T05:51:38.960Z,4.47
2022-09-23T05:54:43.491Z,3.67
2022-09-23T05:57:46.023Z,3.90
2022-09-23T06:00:49.898Z,4.30
2022-09-23T06:03:52.894Z,4.10
2022-09-23T06:06:55.532Z,4.13
2022-09-23T06:09:59.826Z,4.20
2022-09-23T06:13:02.842Z,4.30
2022-09-23T06:16:07.934Z,4.13
2022-09-23T06:19:10.832Z,3.70
2022-09-23T06:22:16.994Z,4.75
2022-09-23T06:25:23.076Z,4.63
2022-09-23T06:28:25.626Z,5.43
2022-09-23T06:31:28.620Z,4.90
2022-09-23T06:34:43.474Z,5.20
2022-09-23T06:37:49.462Z,4.87
2022-09-23T06:40:54.593Z,5.10
2022-09-23T06:43:57.318Z,5.27
2022-09-23T06:47:00.025Z,4.67
2022-09-23T06:50:02.853Z,4.90
2022-09-23T06:53:05.652Z,4.77
2022-09-23T06:56:11.177Z,5.40
2022-09-23T06:59:17.060Z,4.53
2022-09-23T07:02:19.766Z,4.63
2022-09-23T07:05:22.690Z,4.40
2022-09-23T07:08:27.149Z,4.18
2022-09-23T07:11:31.064Z,4.60
2022-09-23T07:14:34.222Z,4.57
2022-09-23T07:17:37.466Z,4.20
2022-09-23T07:20:40.208Z,4.50
2022-09-23T07:23:43.170Z,4.07
2022-09-23T07:26:47.249Z,3.83
2022-09-23T07:29:50.661Z,4.30
2022-09-23T07:32:53.619Z,4.20
2022-09-23T07:35:56.687Z,3.90
2022-09-23T07:39:00.666Z,3.95
2022-09-23T07:42:05.759Z,4.07
2022-09-23T07:45:10.025Z,4.00
2022-09-23T07:48:12.540Z,4.40
2022-09-23T07:51:18.560Z,3.50
2022-09-23T07:54:21.527Z,4.30
2022-09-23T07:57:25.670Z,3.90
2022-09-23T08:00:28.373Z,5.07
2022-09-23T08:03:31.153Z,3.42
2022-09-23T08:06:34.192Z,3.03
2022-09-23T08:09:41.486Z,3.30
2022-09-23T08:12:45.899Z,3.30
2022-09-23T08:15:55.185Z,3.60
2022-09-23T08:18:58.285Z,3.53
2022-09-23T08:22:01.148Z,3.40
2022-09-23T08:25:05.296Z,3.90
2022-09-23T08:28:12.795Z,3.00
2022-09-23T08:31:15.585Z,3.27
2022-09-23T08:34:19.495Z,3.35
2022-09-23T08:37:22.548Z,3.37
2022-09-23T08:40:25.628Z,2.75
2022-09-23T08:43:31.360Z,2.35
2022-09-23T08:46:37.688Z,2.37
2022-09-23T08:49:46.091Z,1.50
2022-09-23T08:52:52.042Z,1.40
2022-09-23T08:55:56.268Z,1.97
2022-09-23T08:59:07.881Z,1.70
2022-09-23T09:02:16.610Z,2.00
2022-09-23T09:05:25.599Z,1.80
2022-09-23T09:08:32.045Z,1.67
2022-09-23T09:11:37.246Z,2.33
2022-09-23T09:14:48.976Z,2.57
2022-09-23T09:17:59.235Z,2.87
2022-09-23T09:21:09.960Z,2.90
2022-09-23T09:24:18.505Z,2.73
2022-09-23T09:27:21.291Z,3.10
2022-09-23T09:30:25.639Z,2.65
2022-09-23T09:33:32.491Z,3.90
2022-09-23T09:36:39.516Z,3.57
2022-09-23T09:39:42.328Z,2.83
2022-09-23T09:42:48.181Z,3.58
2022-09-23T09:46:02.151Z,2.60
2022-09-23T09:49:10.538Z,2.93
2022-09-23T09:52:23.488Z,2.60
2022-09-23T09:55:28.485Z,2.60
2022-09-23T09:58:44.114Z,2.93
2022-09-23T10:01:48.282Z,3.40
2022-09-23T10:04:57.258Z,3.20
2022-09-23T10:08:17.627Z,3.87
2022-09-23T10:11:20.318Z,3.47
2022-09-23T10:14:23.692Z,2.60
2022-09-23T10:20:36.411Z,3.17
2022-09-23T10:23:41.600Z,3.17
2022-09-23T10:26:51.679Z,3.00
2022-09-23T10:29:56.878Z,3.67
2022-09-23T10:33:01.252Z,3.23
2022-09-23T10:36:03.893Z,3.20
2022-09-23T10:39:23.908Z,2.88
2022-09-23T10:42:49.762Z,3.33
2022-09-23T10:46:11.594Z,3.13
2022-09-23T10:49:34.907Z,2.90
2022-09-23T10:52:46.949Z,2.92
2022-09-23T10:56:05.651Z,2.93
2022-09-23T10:59:27.215Z,2.50
2022-09-23T11:02:47.682Z,2.50
2022-09-23T11:05:58.914Z,2.70
2022-09-23T11:09:15.601Z,2.50
2022-09-23T11:12:26.811Z,2.50
2022-09-23T11:15:39.152Z,2.63
2022-09-23T11:19:03.268Z,2.07
2022-09-23T11:22:20.222Z,2.37
2022-09-23T11:25:37.000Z,2.10
2022-09-23T11:29:04.538Z,2.70
2022-09-23T11:32:22.759Z,2.40
2022-09-23T11:35:27.491Z,2.40
2022-09-23T11:38:36.998Z,2.30
2022-09-23T11:41:40.999Z,2.20
2022-09-23T11:44:47.085Z,1.87
2022-09-23T11:47:52.544Z,2.00
2022-09-23T11:50:58.981Z,1.60
2022-09-23T11:54:05.394Z,1.80
2022-09-23T11:57:12.444Z,1.60
2022-09-23T12:00:19.047Z,1.70
2022-09-23T12:03:39.171Z,2.00
2022-09-23T12:09:58.668Z,2.00
2022-09-23T12:13:06.585Z,2.20
2022-09-23T12:16:30.801Z,2.07
2022-09-23T12:19:48.645Z,2.10
2022-09-23T12:22:59.850Z,1.90
2022-09-23T12:26:07.500Z,1.87
2022-09-23T12:29:13.374Z,2.50
2022-09-23T12:32:18.590Z,1.90
2022-09-23T12:35:23.635Z,2.20
2022-09-23T12:38:27.567Z,2.47
2022-09-23T12:41:35.348Z,2.07
2022-09-23T12:44:42.043Z,2.17
2022-09-23T12:47:44.639Z,2.30
2022-09-23T12:50:59.617Z,2.38
2022-09-23T12:54:24.327Z,2.17
2022-09-23T12:57:43.648Z,1.90
2022-09-23T13:01:07.415Z,2.17
2022-09-23T13:04:53.109Z,2.38
2022-09-23T13:08:00.261Z,2.65
2022-09-23T13:11:04.383Z,2.50
2022-09-23T13:14:08.900Z,2.65
2022-09-23T13:17:24.281Z,2.47
2022-09-23T13:20:36.530Z,2.22
2022-09-23T13:23:39.192Z,1.80
2022-09-23T13:26:46.375Z,3.08
2022-09-23T13:29:53.174Z,3.15
2022-09-23T13:33:04.189Z,2.53
2022-09-23T13:36:13.041Z,3.00
2022-09-23T13:39:16.415Z,2.53
2022-09-23T13:42:25.520Z,3.17
2022-09-23T13:45:32.085Z,3.10
2022-09-23T13:48:34.835Z,2.83
2022-09-23T13:51:37.689Z,2.83
2022-09-23T13:54:48.784Z,2.35
2022-09-23T13:57:58.924Z,3.13
2022-09-23T14:01:03.466Z,3.50
2022-09-23T14:04:06.537Z,2.60
2022-09-23T14:07:10.969Z,2.60
2022-09-23T14:10:18.872Z,2.55
2022-09-23T14:13:25.892Z,2.50
2022-09-23T14:16:32.767Z,2.42
2022-09-23T14:19:36.599Z,2.30
2022-09-23T14:22:39.142Z,2.83
2022-09-23T14:25:41.940Z,2.85
2022-09-23T14:28:44.973Z,2.75
2022-09-23T14:31:56.932Z,2.90
2022-09-23T14:35:09.419Z,2.83
2022-09-23T14:38:30.409Z,2.65
2022-09-23T14:41:38.664Z,2.63
2022-09-23T14:44:41.320Z,2.53
2022-09-23T14:47:48.498Z,2.40
2022-09-23T14:50:53.313Z,2.43
2022-09-23T14:53:55.947Z,2.50
2022-09-23T14:56:58.706Z,2.42
2022-09-23T15:00:03.964Z,2.63
2022-09-23T15:03:17.673Z,2.50
2022-09-23T15:06:20.778Z,2.72
2022-09-23T15:09:26.046Z,2.22
2022-09-23T15:12:28.763Z,2.17
2022-09-23T15:15:31.620Z,2.10
2022-09-23T15:21:41.266Z,2.20
2022-09-23T15:24:45.906Z,2.58
2022-09-23T15:28:03.444Z,2.15
2022-09-23T15:31:09.173Z,2.63
2022-09-23T15:34:13.270Z,2.43
2022-09-23T15:37:15.814Z,2.97
2022-09-23T15:40:22.168Z,2.03
2022-09-23T15:43:26.652Z,2.50
2022-09-23T15:46:33.645Z,2.60
2022-09-23T15:49:39.550Z,2.27
2022-09-23T15:52:45.125Z,2.73
2022-09-23T15:55:50.266Z,2.37
2022-09-23T15:58:52.936Z,2.13
2022-09-23T16:01:56.789Z,2.38
2022-09-23T16:05:02.923Z,2.70
2022-09-23T16:08:08.904Z,2.57
2022-09-23T16:11:16.309Z,2.77
2022-09-23T16:14:20.369Z,2.03
2022-09-23T16:17:23.176Z,2.03
2022-09-23T16:20:29.076Z,2.22
2022-09-23T16:23:38.620Z,2.63
2022-09-23T16:26:43.170Z,2.07
2022-09-23T16:29:45.899Z,2.63
2022-09-23T16:32:48.551Z,2.72
2022-09-23T16:35:52.756Z,2.65
2022-09-23T16:38:56.317Z,3.00
2022-09-23T16:41:59.207Z,2.30
2022-09-23T16:45:02.069Z,2.50
2022-09-23T16:48:06.419Z,3.05
2022-09-23T16:51:15.369Z,3.03
2022-09-23T16:54:19.278Z,2.87
2022-09-23T16:57:22.010Z,2.30
2022-09-23T17:00:42.416Z,2.65
2022-09-23T17:03:45.219Z,3.13
2022-09-23T17:06:50.911Z,3.10
2022-09-23T17:09:53.734Z,4.30
2022-09-23T17:12:56.376Z,8.15
2022-09-23T17:15:59.090Z,7.40
2022-09-23T17:19:07.307Z,5.93
2022-09-23T17:22:11.434Z,4.73
2022-09-23T17:25:14.247Z,5.37
2022-09-23T17:28:16.762Z,7.75
2022-09-23T17:31:19.793Z,8.25
2022-09-23T17:34:23.975Z,8.10
2022-09-23T17:37:28.103Z,6.00
2022-09-23T17:40:30.874Z,5.33
2022-09-23T17:43:33.622Z,4.90
2022-09-23T17:46:36.283Z,5.25
2022-09-23T17:49:38.842Z,4.40
2022-09-23T17:52:42.862Z,5.20
2022-09-23T17:55:45.448Z,4.83
2022-09-23T17:58:49.403Z,4.97
2022-09-23T18:01:51.976Z,4.53
2022-09-23T18:04:54.646Z,5.47
2022-09-23T18:08:00.194Z,5.65
2022-09-23T18:11:15.668Z,4.80
2022-09-23T18:14:19.907Z,6.68
2022-09-23T18:17:22.530Z,5.67
2022-09-23T18:20:25.197Z,6.43
2022-09-23T18:23:29.282Z,5.47
2022-09-23T18:26:31.944Z,6.23
2022-09-23T18:29:35.237Z,6.80
2022-09-23T18:32:37.815Z,6.25
2022-09-23T18:35:40.406Z,6.35
2022-09-23T18:38:44.387Z,6.75
2022-09-23T18:41:49.479Z,10.60
2022-09-23T18:44:54.390Z,12.37
2022-09-23T18:48:10.981Z,12.27
2022-09-23T18:51:15.035Z,11.83
2022-09-23T18:54:19.856Z,11.53
2022-09-23T18:57:22.561Z,10.20
2022-09-23T19:00:25.217Z,10.45
2022-09-23T19:03:27.985Z,9.32
2022-09-23T19:06:32.407Z,12.25
2022-09-23T19:09:36.437Z,9.57
2022-09-23T19:12:39.265Z,8.77
2022-09-23T19:15:41.917Z,10.45
2022-09-23T19:18:46.476Z,9.65
2022-09-23T19:21:49.085Z,8.80
2022-09-23T19:24:53.116Z,7.22
2022-09-23T19:27:55.777Z,6.77
2022-09-23T19:30:59.029Z,7.95
2022-09-23T19:34:02.881Z,9.07
2022-09-23T19:37:05.729Z,9.53
2022-09-23T19:40:11.015Z,8.13
2022-09-23T19:43:14.354Z,7.60
2022-09-23T19:46:17.102Z,6.35
2022-09-23T19:49:19.727Z,7.40
2022-09-23T19:52:22.801Z,6.80
2022-09-23T19:55:28.448Z,6.03
2022-09-23T19:58:31.060Z,5.97
2022-09-23T20:01:34.263Z,4.13
2022-09-23T20:04:37.535Z,4.35
2022-09-23T20:07:42.221Z,4.30
2022-09-23T20:10:46.840Z,3.33
2022-09-23T20:13:53.688Z,3.67
2022-09-23T20:16:56.320Z,4.10
2022-09-23T20:19:59.311Z,4.43
2022-09-23T20:23:02.001Z,3.92
2022-09-23T20:26:24.629Z,4.30
2022-09-23T20:29:27.208Z,4.03
2022-09-23T20:32:29.749Z,4.17
2022-09-23T20:35:33.151Z,5.33
2022-09-23T20:38:36.061Z,4.20
2022-09-23T20:41:40.406Z,5.00
2022-09-23T20:44:44.878Z,5.40
2022-09-23T20:47:47.500Z,4.00
2022-09-23T20:50:52.932Z,4.37
2022-09-23T20:53:55.572Z,3.90
2022-09-23T20:57:00.447Z,3.90
2022-09-23T21:00:03.161Z,4.80
2022-09-23T21:03:06.369Z,4.82
2022-09-23T21:06:10.096Z,4.78
2022-09-23T21:09:12.722Z,5.70
2022-09-23T21:12:17.097Z,5.23
2022-09-23T21:15:19.824Z,5.23
2022-09-23T21:18:24.100Z,4.75
2022-09-23T21:21:27.215Z,4.40
2022-09-23T21:27:54.419Z,5.17
2022-09-23T21:30:59.111Z,4.20
2022-09-23T21:34:03.829Z,5.00
2022-09-23T21:37:06.993Z,4.30
2022-09-23T21:40:28.155Z,4.82
2022-09-23T21:43:34.886Z,5.30
2022-09-23T21:46:37.875Z,5.37
2022-09-23T21:49:41.557Z,5.03
2022-09-23T21:55:48.855Z,4.45
2022-09-23T21:58:54.460Z,5.30
2022-09-23T22:01:57.226Z,5.03
2022-09-23T22:04:59.829Z,5.53
2022-09-23T22:08:02.889Z,4.87
2022-09-23T22:11:07.580Z,4.57
2022-09-23T22:14:13.539Z,5.00
2022-09-23T22:17:16.444Z,4.60
2022-09-23T22:20:19.131Z,4.22
2022-09-23T22:23:21.854Z,3.73
2022-09-23T22:26:25.270Z,4.13
2022-09-23T22:29:47.028Z,4.10
2022-09-23T22:32:54.890Z,4.00
2022-09-23T22:36:02.655Z,4.07
2022-09-23T22:39:05.652Z,4.47
2022-09-23T22:42:08.564Z,3.72
2022-09-23T22:45:13.289Z,3.97
2022-09-23T22:48:16.013Z,4.60
2022-09-23T22:51:18.580Z,4.15
2022-09-23T22:54:22.240Z,4.20
2022-09-23T23:00:29.074Z,4.43
2022-09-23T23:03:34.354Z,4.63
2022-09-23T23:06:37.463Z,4.47
2022-09-23T23:09:40.088Z,3.90
2022-09-23T23:12:42.824Z,3.97
2022-09-23T23:15:46.768Z,3.90
2022-09-23T23:18:49.439Z,4.20
2022-09-23T23:21:52.569Z,3.80
2022-09-23T23:24:55.607Z,4.03
2022-09-23T23:27:58.384Z,3.97
2022-09-23T23:31:05.290Z,4.10
2022-09-23T23:34:09.207Z,4.20
2022-09-23T23:37:11.877Z,3.73
2022-09-23T23:40:14.436Z,4.65
2022-09-23T23:43:17.212Z,4.77
2022-09-23T23:46:21.479Z,4.50
2022-09-23T23:49:24.107Z,4.23
2022-09-23T23:52:26.748Z,5.13
2022-09-23T23:55:29.421Z,4.53
2022-09-23T23:58:32.146Z,4.55
